Ibitita, Brazil
Current Conditions -  °F | °C
As of 9:00 AM on Thursday 25 Dec 2014 (Local Time) from SBPL Reporting Station
Broken Clouds Broken Clouds  
Wind Chill: 81°   Ceiling: 3000
Heat Index: 83°   Visibility: 6mi
Dew Point: 68°   Wind: 7mph
Humidity: 65%   Direction: 120°ESE
Pressure: 30.03"   Gusts: NA
Location:  11.55°S, 41.98°W
Report Text: SBPL 251200Z 12006KT 9999 BKN030 27/20 Q1017
Loading
Personal Weather Stations






























Interactive Weather Map New forecast layout! Learn more

10-Day Weather Forecast

Advertisements
Track Severe Weather on mobile